CheckWX is a tool to help pilots better visualize weather data.  It is not intended as a substitute for an official pre-flight weather briefing.

00:23:52 UTC

CWGZ METAR
Grise Fiord Airport
Canada
Current

4 hours ago

CWGZ 222000Z 31003KT 270V330 15SM BKN038 06/03 A2990 RMK SC7 R0 AFT 13UTC/LAST STFD OBS/NEXT 231300 UTC SLP132
Observed
Aug-22 @ 20:00 UTC
Wind
  • 310° at 3 KTS
Visibility
15 SM
Flight Rules
VFR
Cloud Levels
  • Broken at 3,800' AGL
Temperature
C / 43°F
Dewpoint
C / 37°F
Humidity
81%
Altimeter
29.9" Hg
Pressure
1012.52 hPa
Previous

5 hours ago

CWGZ 221900Z 22003KT 15SM FEW008 BKN026 05/02 A2992 RMK ST1SC7 ST TR SLP137
Observed
Aug-22 @ 19:00 UTC
Wind
  • 220° at 3 KTS
Visibility
15 SM
Flight Rules
MVFR
Cloud Levels
  • Few at 800' AGL
  • Broken at 2,600' AGL
Temperature
C / 41°F
Dewpoint
C / 36°F
Humidity
81%
Altimeter
29.92" Hg
Pressure
1013.22 hPa
Previous

6 hours ago

CWGZ 221800Z 27005KT 15SM FEW009 BKN026 BKN080 06/02 A2991 RMK ST1SC6AC1 ST TR SLP135
Observed
Aug-22 @ 18:00 UTC
Wind
  • 270° at 5 KTS
Visibility
15 SM
Flight Rules
MVFR
Cloud Levels
  • Few at 900' AGL
  • Broken at 2,600' AGL
  • Broken at 8,000' AGL
Temperature
C / 43°F
Dewpoint
C / 36°F
Humidity
76%
Altimeter
29.91" Hg
Pressure
1012.92 hPa